Training Ship Golden Bear — NMRY — position and weather

sailwx.info

Track history (hours):
 
Tides and Currents Weather Stations Pressure Air Temp Water Temp Dewpoint Dewpoint Depression Visibility Wind Speed Wind Dir Waves Ship Positions

Training Ship Golden Bear (United States)

Training ship for California Maritime Academy. Ex USNS Maury T-AGS-39. Sister ship of training ship "State of Maine". See also http://www.csum.edu/MarinePrograms/tsgb.asp.

Ship's website: http://cma-virtualftv.csum.edu/wordpress/

Last reported at 2014-Aug-24 23:10 UTC. Time now 2014-Sep-17 23:42 UTC.
Position N 38°04' W 122°14'.
Warning: this ship's position is 24 days out of date.

Type: Ship. MMSI: 367978000.

Date/timePositionNaut miles runAvg speedWind from/ knotsBaromVisibWave heightAir tempDewpointWater temp
2014-Aug-24 23:10N 38°04' W 122°14'4 6.6
2014-Aug-24 22:33N 38°03' W 122°19'1110.7
2014-Aug-24 21:33N 37°54' W 122°27'8 8.0
2014-Aug-24 20:33N 37°48' W 122°32'10 9.2
2014-Aug-24 19:31N 37°41' W 122°40'10 9.9
2014-Aug-24 18:33N 37°31' W 122°40'1010.0
2014-Aug-24 17:33N 37°21' W 122°40'8 7.9
2014-Aug-24 16:33N 37°13' W 122°41'1111.3
2014-Aug-24 15:33N 37°04' W 122°33'21417.6
2014-Aug-24 03:23N 33°47' W 120°49'1518.5
2014-Aug-24 02:33N 33°38' W 120°34'1817.9
2014-Aug-24 01:33N 33°26' W 120°18'1818.2
2014-Aug-24 00:33N 33°15' W 120°01'1818.4
2014-Aug-23 23:33N 33°04' W 119°43'2018.5
2014-Aug-23 22:30N 32°54' W 119°23'1818.5
2014-Aug-23 21:31N 32°44' W 119°05'2118.3
2014-Aug-23 20:21N 32°40' W 118°41'1518.2
2014-Aug-23 19:33N 32°36' W 118°24'62 3.9
2014-Aug-23 03:24N 32°43' W 117°11'0 0.0
2014-Aug-21 17:20N 32°43' W 117°11'0 0.0
2014-Aug-20 16:28N 32°43' W 117°11'3 3.2
2014-Aug-20 15:33N 32°42' W 117°14'8 8.0
2014-Aug-20 14:33N 32°34' W 117°16'4 4.0
2014-Aug-20 13:33N 32°37' W 117°20'6 6.1
2014-Aug-20 12:33N 32°42' W 117°24'9 9.3
2014-Aug-20 11:33N 32°35' W 117°32'10 9.9
2014-Aug-20 10:33N 32°44' W 117°37'10 9.7
2014-Aug-20 09:33N 32°51' W 117°45'7 6.8
2014-Aug-20 08:33N 32°56' W 117°51'1010.3
2014-Aug-20 07:33N 33°05' W 117°55'1010.5
2014-Aug-20 06:33N 33°12' W 118°04'10 9.9
2014-Aug-20 05:33N 33°16' W 118°15'1010.4
2014-Aug-20 04:33N 33°16' W 118°27'1010.3
2014-Aug-20 03:33N 33°16' W 118°40'6 6.0
2014-Aug-20 02:33N 33°16' W 118°47'10 9.8
2014-Aug-20 01:32N 33°15' W 118°35'5 5.1
2014-Aug-20 00:33N 33°20' W 118°34'12 9.6
2014-Aug-19 23:17N 33°31' W 118°39'22 8.1
2014-Aug-19 20:33N 33°23' W 118°14'9 7.8
2014-Aug-19 19:25N 33°16' W 118°21'1210.1
2014-Aug-19 18:15N 33°17' W 118°35'710.0
2014-Aug-19 17:33N 33°17' W 118°43'8 7.4
2014-Aug-19 16:27N 33°25' W 118°42'20 6.9
2014-Aug-19 13:30N 33°25' W 118°17'8 8.6
2014-Aug-19 12:33N 33°17' W 118°16'9 9.4
2014-Aug-19 11:33N 33°16' W 118°27'8 8.4
2014-Aug-19 10:33N 33°22' W 118°35'9 9.3
2014-Aug-19 09:33N 33°30' W 118°39'9 9.1
2014-Aug-19 08:33N 33°32' W 118°28'10 9.8
2014-Aug-19 07:33N 33°27' W 118°18'9 9.1
2014-Aug-19 06:33N 33°18' W 118°15'9 8.8
2014-Aug-19 05:33N 33°16' W 118°25'1010.3
2014-Aug-19 04:33N 33°17' W 118°38'10 9.8
2014-Aug-19 03:34N 33°17' W 118°49'10 9.7
2014-Aug-19 02:33N 33°26' W 118°45'9 9.1
2014-Aug-19 01:33N 33°32' W 118°36'9 9.0
2014-Aug-19 00:33N 33°30' W 118°26'9 9.4
2014-Aug-18 23:33N 33°24' W 118°17'10 9.6
2014-Aug-18 22:33N 33°16' W 118°10'9 9.2
2014-Aug-18 21:33N 33°09' W 118°04'10 9.6
2014-Aug-18 20:33N 33°01' W 117°58'10 9.7
2014-Aug-18 19:33N 32°53' W 117°50'1010.0
2014-Aug-18 18:33N 32°45' W 117°43'10 9.9
2014-Aug-18 17:33N 32°37' W 117°37'10 9.9
2014-Aug-18 16:33N 32°29' W 117°30'9 8.8
2014-Aug-18 15:32N 32°22' W 117°24'10 9.9
2014-Aug-18 14:33N 32°14' W 117°17'9 9.2
2014-Aug-18 13:33N 32°05' W 117°16'7 5.3
2014-Aug-18 12:16N 32°06' W 117°08'6 8.9
2014-Aug-18 11:33N 31°60' W 117°05'9 9.6
2014-Aug-18 10:33N 31°50' W 117°05'9 9.1
2014-Aug-18 09:33N 31°41' W 117°05'8 8.2
2014-Aug-18 08:33N 31°36' W 117°13'8 8.4
2014-Aug-18 07:33N 31°41' W 117°21'1010.0
2014-Aug-18 06:33N 31°51' W 117°18'10 9.4
2014-Aug-18 05:30N 31°52' W 117°06'9 9.9
2014-Aug-18 04:33N 31°52' W 116°55'6 2.9
2014-Aug-18 02:30N 31°53' W 116°48'4 4.4
2014-Aug-18 01:29N 31°55' W 116°53'1010.6
2014-Aug-18 00:30N 32°02' W 117°03'6711.3
2014-Aug-17 18:33N 32°54' W 117°51'1212.4
2014-Aug-17 17:33N 33°05' W 117°60'1212.0
2014-Aug-17 16:33N 33°14' W 118°09'8 7.5
2014-Aug-17 15:33N 33°21' W 118°12'1 1.0
2014-Aug-17 14:33N 33°20' W 118°14'1110.5
2014-Aug-17 13:33N 33°28' W 118°22'3 3.0
2014-Aug-17 12:33N 33°27' W 118°19'9 8.7
2014-Aug-17 11:33N 33°18' W 118°15'8 8.5
2014-Aug-17 10:33N 33°16' W 118°25'10 9.6
2014-Aug-17 09:33N 33°14' W 118°36'9 9.1
2014-Aug-17 08:33N 33°14' W 118°47'9 9.4
2014-Aug-17 07:33N 33°16' W 118°58'1010.1
2014-Aug-17 06:33N 33°20' W 119°09'1010.1
2014-Aug-17 05:33N 33°24' W 119°20'1010.2
2014-Aug-17 04:33N 33°29' W 119°31'9 8.8
2014-Aug-17 03:33N 33°37' W 119°27'9 9.5
2014-Aug-17 02:33N 33°45' W 119°22'1010.0
2014-Aug-17 01:33N 33°54' W 119°16'9 9.2
2014-Aug-17 00:33N 34°01' W 119°09'9 8.9
2014-Aug-16 23:33N 33°57' W 118°60'9 9.2
2014-Aug-16 22:33N 33°53' W 118°50'9 9.3
2014-Aug-16 21:33N 33°48' W 118°40'9 9.3
2014-Aug-16 20:33N 33°44' W 118°30'8 8.4
2014-Aug-16 19:33N 33°39' W 118°22'9 9.2
2014-Aug-16 18:33N 33°37' W 118°11'1110.9
2014-Aug-16 17:33N 33°27' W 118°06'1110.7
2014-Aug-16 16:33N 33°17' W 118°01'8 8.5
2014-Aug-16 15:33N 33°08' W 118°02'6 5.5
2014-Aug-16 14:33N 33°07' W 118°09'6 5.7
2014-Aug-16 13:33N 33°12' W 118°12'7 6.9
2014-Aug-16 12:33N 33°16' W 118°18'1010.2
2014-Aug-16 11:32N 33°16' W 118°31'9 9.3
2014-Aug-16 10:33N 33°24' W 118°37'8 4.1
2014-Aug-16 08:33N 33°32' W 118°38'8 7.9
2014-Aug-16 07:33N 33°31' W 118°29'10 9.6
2014-Aug-16 06:33N 33°27' W 118°19'9 8.9
2014-Aug-16 05:33N 33°18' W 118°16'9 8.6
2014-Aug-16 04:33N 33°16' W 118°26'9 8.7
2014-Aug-16 03:33N 33°21' W 118°34'10 9.6
2014-Aug-16 02:33N 33°30' W 118°39'8 7.6
2014-Aug-16 01:33N 33°31' W 118°30'8 8.5
2014-Aug-16 00:33N 33°28' W 118°21'8 7.8
2014-Aug-15 23:34N 33°22' W 118°15'1 0.5
2014-Aug-15 22:33N 33°22' W 118°15'1110.7
2014-Aug-15 21:33N 33°16' W 118°26'1616.3
2014-Aug-15 20:33N 33°14' W 118°45'1514.7
2014-Aug-15 19:34N 33°17' W 119°02'1616.0
2014-Aug-15 18:34N 33°24' W 119°20'1716.7
2014-Aug-15 17:34N 33°31' W 119°38'1817.0
2014-Aug-15 16:29N 33°39' W 119°58'1813.0
2014-Aug-15 15:07N 33°47' W 120°17'912.3
2014-Aug-15 14:25N 33°50' W 120°26'1612.5
2014-Aug-15 13:09N 33°58' W 120°43'4 6.4
2014-Aug-15 12:28N 33°56' W 120°48'3 2.8
2014-Aug-15 11:18N 33°59' W 120°45'4 5.7
2014-Aug-15 10:33N 33°55' W 120°45'3 2.6
2014-Aug-15 09:17N 33°58' W 120°45'911.9
2014-Aug-15 08:29N 33°53' W 120°35'1111.8
2014-Aug-15 07:33N 33°48' W 120°24'1111.2
2014-Aug-15 06:33N 33°42' W 120°12'1111.3
2014-Aug-15 05:33N 33°36' W 120°00'2510.9
2014-Aug-15 03:15N 33°36' W 119°30'911.8
2014-Aug-15 02:28N 33°36' W 119°19'1111.6
2014-Aug-15 01:33N 33°36' W 119°07'1211.6
2014-Aug-15 00:33N 33°36' W 118°53'1111.3
2014-Aug-14 23:33N 33°32' W 118°40'  
Track history (hours):
 
Tides and Currents Weather Stations Pressure Air Temp Water Temp Dewpoint Dewpoint Depression Visibility Wind Speed Wind Dir Waves Ship Positions

Training Ship Golden Bear (United States)

Training ship for California Maritime Academy. Ex USNS Maury T-AGS-39. Sister ship of training ship "State of Maine". See also http://www.csum.edu/MarinePrograms/tsgb.asp.

Ship's website: http://cma-virtualftv.csum.edu/wordpress/

Last reported at 2014-Aug-24 23:10 UTC. Time now 2014-Sep-17 23:42 UTC.
Position N 38°04' W 122°14'.
Warning: this ship's position is 24 days out of date.

Type: Ship. MMSI: 367978000.

Date/timePositionNaut miles runAvg speedWind from/ knotsBaromVisibWave heightAir tempDewpointWater temp
2014-Aug-24 23:10N 38°04' W 122°14'4 6.6
2014-Aug-24 22:33N 38°03' W 122°19'1110.7
2014-Aug-24 21:33N 37°54' W 122°27'8 8.0
2014-Aug-24 20:33N 37°48' W 122°32'10 9.2
2014-Aug-24 19:31N 37°41' W 122°40'10 9.9
2014-Aug-24 18:33N 37°31' W 122°40'1010.0
2014-Aug-24 17:33N 37°21' W 122°40'8 7.9
2014-Aug-24 16:33N 37°13' W 122°41'1111.3
2014-Aug-24 15:33N 37°04' W 122°33'21417.6
2014-Aug-24 03:23N 33°47' W 120°49'1518.5
2014-Aug-24 02:33N 33°38' W 120°34'1817.9
2014-Aug-24 01:33N 33°26' W 120°18'1818.2
2014-Aug-24 00:33N 33°15' W 120°01'1818.4
2014-Aug-23 23:33N 33°04' W 119°43'2018.5
2014-Aug-23 22:30N 32°54' W 119°23'1818.5
2014-Aug-23 21:31N 32°44' W 119°05'2118.3
2014-Aug-23 20:21N 32°40' W 118°41'1518.2
2014-Aug-23 19:33N 32°36' W 118°24'62 3.9
2014-Aug-23 03:24N 32°43' W 117°11'0 0.0
2014-Aug-21 17:20N 32°43' W 117°11'0 0.0
2014-Aug-20 16:28N 32°43' W 117°11'3 3.2
2014-Aug-20 15:33N 32°42' W 117°14'8 8.0
2014-Aug-20 14:33N 32°34' W 117°16'4 4.0
2014-Aug-20 13:33N 32°37' W 117°20'6 6.1
2014-Aug-20 12:33N 32°42' W 117°24'9 9.3
2014-Aug-20 11:33N 32°35' W 117°32'10 9.9
2014-Aug-20 10:33N 32°44' W 117°37'10 9.7
2014-Aug-20 09:33N 32°51' W 117°45'7 6.8
2014-Aug-20 08:33N 32°56' W 117°51'1010.3
2014-Aug-20 07:33N 33°05' W 117°55'1010.5
2014-Aug-20 06:33N 33°12' W 118°04'10 9.9
2014-Aug-20 05:33N 33°16' W 118°15'1010.4
2014-Aug-20 04:33N 33°16' W 118°27'1010.3
2014-Aug-20 03:33N 33°16' W 118°40'6 6.0
2014-Aug-20 02:33N 33°16' W 118°47'10 9.8
2014-Aug-20 01:32N 33°15' W 118°35'5 5.1
2014-Aug-20 00:33N 33°20' W 118°34'12 9.6
2014-Aug-19 23:17N 33°31' W 118°39'22 8.1
2014-Aug-19 20:33N 33°23' W 118°14'9 7.8
2014-Aug-19 19:25N 33°16' W 118°21'1210.1
2014-Aug-19 18:15N 33°17' W 118°35'710.0
2014-Aug-19 17:33N 33°17' W 118°43'8 7.4
2014-Aug-19 16:27N 33°25' W 118°42'20 6.9
2014-Aug-19 13:30N 33°25' W 118°17'8 8.6
2014-Aug-19 12:33N 33°17' W 118°16'9 9.4
2014-Aug-19 11:33N 33°16' W 118°27'8 8.4
2014-Aug-19 10:33N 33°22' W 118°35'9 9.3
2014-Aug-19 09:33N 33°30' W 118°39'9 9.1
2014-Aug-19 08:33N 33°32' W 118°28'10 9.8
2014-Aug-19 07:33N 33°27' W 118°18'9 9.1
2014-Aug-19 06:33N 33°18' W 118°15'9 8.8
2014-Aug-19 05:33N 33°16' W 118°25'1010.3
2014-Aug-19 04:33N 33°17' W 118°38'10 9.8
2014-Aug-19 03:34N 33°17' W 118°49'10 9.7
2014-Aug-19 02:33N 33°26' W 118°45'9 9.1
2014-Aug-19 01:33N 33°32' W 118°36'9 9.0
2014-Aug-19 00:33N 33°30' W 118°26'9 9.4
2014-Aug-18 23:33N 33°24' W 118°17'10 9.6
2014-Aug-18 22:33N 33°16' W 118°10'9 9.2
2014-Aug-18 21:33N 33°09' W 118°04'10 9.6
2014-Aug-18 20:33N 33°01' W 117°58'10 9.7
2014-Aug-18 19:33N 32°53' W 117°50'1010.0
2014-Aug-18 18:33N 32°45' W 117°43'10 9.9
2014-Aug-18 17:33N 32°37' W 117°37'10 9.9
2014-Aug-18 16:33N 32°29' W 117°30'9 8.8
2014-Aug-18 15:32N 32°22' W 117°24'10 9.9
2014-Aug-18 14:33N 32°14' W 117°17'9 9.2
2014-Aug-18 13:33N 32°05' W 117°16'7 5.3
2014-Aug-18 12:16N 32°06' W 117°08'6 8.9
2014-Aug-18 11:33N 31°60' W 117°05'9 9.6
2014-Aug-18 10:33N 31°50' W 117°05'9 9.1
2014-Aug-18 09:33N 31°41' W 117°05'8 8.2
2014-Aug-18 08:33N 31°36' W 117°13'8 8.4
2014-Aug-18 07:33N 31°41' W 117°21'1010.0
2014-Aug-18 06:33N 31°51' W 117°18'10 9.4
2014-Aug-18 05:30N 31°52' W 117°06'9 9.9
2014-Aug-18 04:33N 31°52' W 116°55'6 2.9
2014-Aug-18 02:30N 31°53' W 116°48'4 4.4
2014-Aug-18 01:29N 31°55' W 116°53'1010.6
2014-Aug-18 00:30N 32°02' W 117°03'6711.3
2014-Aug-17 18:33N 32°54' W 117°51'1212.4
2014-Aug-17 17:33N 33°05' W 117°60'1212.0
2014-Aug-17 16:33N 33°14' W 118°09'8 7.5
2014-Aug-17 15:33N 33°21' W 118°12'1 1.0
2014-Aug-17 14:33N 33°20' W 118°14'1110.5
2014-Aug-17 13:33N 33°28' W 118°22'3 3.0
2014-Aug-17 12:33N 33°27' W 118°19'9 8.7
2014-Aug-17 11:33N 33°18' W 118°15'8 8.5
2014-Aug-17 10:33N 33°16' W 118°25'10 9.6
2014-Aug-17 09:33N 33°14' W 118°36'9 9.1
2014-Aug-17 08:33N 33°14' W 118°47'9 9.4
2014-Aug-17 07:33N 33°16' W 118°58'1010.1
2014-Aug-17 06:33N 33°20' W 119°09'1010.1
2014-Aug-17 05:33N 33°24' W 119°20'1010.2
2014-Aug-17 04:33N 33°29' W 119°31'9 8.8
2014-Aug-17 03:33N 33°37' W 119°27'9 9.5
2014-Aug-17 02:33N 33°45' W 119°22'1010.0
2014-Aug-17 01:33N 33°54' W 119°16'9 9.2
2014-Aug-17 00:33N 34°01' W 119°09'9 8.9
2014-Aug-16 23:33N 33°57' W 118°60'9 9.2
2014-Aug-16 22:33N 33°53' W 118°50'9 9.3
2014-Aug-16 21:33N 33°48' W 118°40'9 9.3
2014-Aug-16 20:33N 33°44' W 118°30'8 8.4
2014-Aug-16 19:33N 33°39' W 118°22'9 9.2
2014-Aug-16 18:33N 33°37' W 118°11'1110.9
2014-Aug-16 17:33N 33°27' W 118°06'1110.7
2014-Aug-16 16:33N 33°17' W 118°01'8 8.5
2014-Aug-16 15:33N 33°08' W 118°02'6 5.5
2014-Aug-16 14:33N 33°07' W 118°09'6 5.7
2014-Aug-16 13:33N 33°12' W 118°12'7 6.9
2014-Aug-16 12:33N 33°16' W 118°18'1010.2
2014-Aug-16 11:32N 33°16' W 118°31'9 9.3
2014-Aug-16 10:33N 33°24' W 118°37'8 4.1
2014-Aug-16 08:33N 33°32' W 118°38'8 7.9
2014-Aug-16 07:33N 33°31' W 118°29'10 9.6
2014-Aug-16 06:33N 33°27' W 118°19'9 8.9
2014-Aug-16 05:33N 33°18' W 118°16'9 8.6
2014-Aug-16 04:33N 33°16' W 118°26'9 8.7
2014-Aug-16 03:33N 33°21' W 118°34'10 9.6
2014-Aug-16 02:33N 33°30' W 118°39'8 7.6
2014-Aug-16 01:33N 33°31' W 118°30'8 8.5
2014-Aug-16 00:33N 33°28' W 118°21'8 7.8
2014-Aug-15 23:34N 33°22' W 118°15'1 0.5
2014-Aug-15 22:33N 33°22' W 118°15'1110.7
2014-Aug-15 21:33N 33°16' W 118°26'1616.3
2014-Aug-15 20:33N 33°14' W 118°45'1514.7
2014-Aug-15 19:34N 33°17' W 119°02'1616.0
2014-Aug-15 18:34N 33°24' W 119°20'1716.7
2014-Aug-15 17:34N 33°31' W 119°38'1817.0
2014-Aug-15 16:29N 33°39' W 119°58'1813.0
2014-Aug-15 15:07N 33°47' W 120°17'912.3
2014-Aug-15 14:25N 33°50' W 120°26'1612.5
2014-Aug-15 13:09N 33°58' W 120°43'4 6.4
2014-Aug-15 12:28N 33°56' W 120°48'3 2.8
2014-Aug-15 11:18N 33°59' W 120°45'4 5.7
2014-Aug-15 10:33N 33°55' W 120°45'3 2.6
2014-Aug-15 09:17N 33°58' W 120°45'911.9
2014-Aug-15 08:29N 33°53' W 120°35'1111.8
2014-Aug-15 07:33N 33°48' W 120°24'1111.2
2014-Aug-15 06:33N 33°42' W 120°12'1111.3
2014-Aug-15 05:33N 33°36' W 120°00'2510.9
2014-Aug-15 03:15N 33°36' W 119°30'911.8
2014-Aug-15 02:28N 33°36' W 119°19'1111.6
2014-Aug-15 01:33N 33°36' W 119°07'1211.6
2014-Aug-15 00:33N 33°36' W 118°53'1111.3
2014-Aug-14 23:33N 33°32' W 118°40'  

Dump ship's entire track history